sensor_id;sensor_type;location;lat;lon;timestamp;P1;durP1;ratioP1;P2;durP2;ratioP2
23782;SDS011;12071;50.850;4.446;2024-03-23T00:53:51;13.30;;;4.75;;
23782;SDS011;12071;50.850;4.446;2024-03-23T00:56:16;16.33;;;5.45;;
23782;SDS011;12071;50.850;4.446;2024-03-23T00:58:42;18.88;;;5.07;;
23782;SDS011;12071;50.850;4.446;2024-03-23T01:01:08;17.23;;;5.60;;
23782;SDS011;12071;50.850;4.446;2024-03-23T01:03:33;15.60;;;5.45;;
23782;SDS011;12071;50.850;4.446;2024-03-23T01:05:59;18.92;;;5.35;;
23782;SDS011;12071;50.850;4.446;2024-03-23T01:08:27;16.30;;;5.70;;
23782;SDS011;12071;50.850;4.446;2024-03-23T01:10:56;16.25;;;5.57;;
23782;SDS011;12071;50.850;4.446;2024-03-23T01:13:28;23.25;;;5.70;;
23782;SDS011;12071;50.850;4.446;2024-03-23T01:15:54;22.02;;;6.57;;
23782;SDS011;12071;50.850;4.446;2024-03-23T01:18:21;16.02;;;5.28;;
23782;SDS011;12071;50.850;4.446;2024-03-23T01:20:48;21.88;;;5.15;;
23782;SDS011;12071;50.850;4.446;2024-03-23T01:23:14;14.70;;;5.30;;
23782;SDS011;12071;50.850;4.446;2024-03-23T01:25:40;16.38;;;4.47;;
23782;SDS011;12071;50.850;4.446;2024-03-23T01:28:06;15.40;;;5.05;;
23782;SDS011;12071;50.850;4.446;2024-03-23T01:30:35;14.82;;;4.93;;
23782;SDS011;12071;50.850;4.446;2024-03-23T01:33:02;18.02;;;6.07;;
23782;SDS011;12071;50.850;4.446;2024-03-23T01:35:28;16.73;;;5.72;;
23782;SDS011;12071;50.850;4.446;2024-03-23T01:37:53;26.70;;;6.65;;
23782;SDS011;12071;50.850;4.446;2024-03-23T01:40:19;21.77;;;5.82;;
23782;SDS011;12071;50.850;4.446;2024-03-23T01:42:58;25.98;;;6.53;;
23782;SDS011;12071;50.850;4.446;2024-03-23T01:45:28;21.08;;;7.25;;
23782;SDS011;12071;50.850;4.446;2024-03-23T01:47:55;27.48;;;7.05;;
23782;SDS011;12071;50.850;4.446;2024-03-23T01:50:20;19.17;;;7.07;;
23782;SDS011;12071;50.850;4.446;2024-03-23T01:52:47;14.63;;;7.05;;
23782;SDS011;12071;50.850;4.446;2024-03-23T01:55:13;18.40;;;7.22;;
23782;SDS011;12071;50.850;4.446;2024-03-23T01:57:39;20.85;;;7.70;;
23782;SDS011;12071;50.850;4.446;2024-03-23T02:00:05;17.85;;;7.50;;
23782;SDS011;12071;50.850;4.446;2024-03-23T02:02:31;22.67;;;7.90;;
23782;SDS011;12071;50.850;4.446;2024-03-23T02:04:57;27.08;;;8.52;;
23782;SDS011;12071;50.850;4.446;2024-03-23T02:07:23;20.33;;;8.25;;
23782;SDS011;12071;50.850;4.446;2024-03-23T02:09:50;27.92;;;8.98;;
23782;SDS011;12071;50.850;4.446;2024-03-23T02:12:17;25.75;;;9.20;;
23782;SDS011;12071;50.850;4.446;2024-03-23T02:14:44;21.23;;;8.32;;
23782;SDS011;12071;50.850;4.446;2024-03-23T02:17:09;29.05;;;9.15;;
23782;SDS011;12071;50.850;4.446;2024-03-23T02:19:35;29.00;;;8.18;;
23782;SDS011;12071;50.850;4.446;2024-03-23T02:22:01;26.52;;;9.38;;
23782;SDS011;12071;50.850;4.446;2024-03-23T02:24:28;20.30;;;7.90;;
23782;SDS011;12071;50.850;4.446;2024-03-23T02:26:54;27.85;;;10.10;;
23782;SDS011;12071;50.850;4.446;2024-03-23T02:29:20;28.33;;;10.77;;
23782;SDS011;12071;50.850;4.446;2024-03-23T02:31:46;38.60;;;11.20;;
23782;SDS011;12071;50.850;4.446;2024-03-23T02:34:11;32.75;;;11.05;;
23782;SDS011;12071;50.850;4.446;2024-03-23T02:36:37;25.50;;;9.82;;
23782;SDS011;12071;50.850;4.446;2024-03-23T02:39:03;26.25;;;11.23;;
23782;SDS011;12071;50.850;4.446;2024-03-23T02:41:28;30.63;;;11.02;;
23782;SDS011;12071;50.850;4.446;2024-03-23T02:43:54;26.23;;;9.77;;
23782;SDS011;12071;50.850;4.446;2024-03-23T02:46:19;24.92;;;10.15;;
23782;SDS011;12071;50.850;4.446;2024-03-23T02:48:48;20.05;;;8.93;;
23782;SDS011;12071;50.850;4.446;2024-03-23T02:51:14;27.00;;;9.25;;
23782;SDS011;12071;50.850;4.446;2024-03-23T02:53:39;23.75;;;9.85;;
23782;SDS011;12071;50.850;4.446;2024-03-23T02:56:06;28.52;;;9.38;;
23782;SDS011;12071;50.850;4.446;2024-03-23T02:58:32;27.50;;;9.57;;
23782;SDS011;12071;50.850;4.446;2024-03-23T03:00:58;27.55;;;9.93;;
23782;SDS011;12071;50.850;4.446;2024-03-23T03:03:24;27.80;;;10.50;;
23782;SDS011;12071;50.850;4.446;2024-03-23T03:05:59;25.13;;;9.52;;
23782;SDS011;12071;50.850;4.446;2024-03-23T03:08:25;29.67;;;9.43;;
23782;SDS011;12071;50.850;4.446;2024-03-23T03:10:51;22.60;;;9.65;;
23782;SDS011;12071;50.850;4.446;2024-03-23T03:13:16;25.48;;;10.05;;
23782;SDS011;12071;50.850;4.446;2024-03-23T03:15:43;26.73;;;9.65;;
23782;SDS011;12071;50.850;4.446;2024-03-23T03:18:09;28.08;;;10.13;;
23782;SDS011;12071;50.850;4.446;2024-03-23T03:20:37;25.30;;;10.23;;
23782;SDS011;12071;50.850;4.446;2024-03-23T03:23:04;25.65;;;9.18;;
23782;SDS011;12071;50.850;4.446;2024-03-23T03:25:30;25.77;;;10.02;;
23782;SDS011;12071;50.850;4.446;2024-03-23T03:27:56;25.17;;;10.18;;
23782;SDS011;12071;50.850;4.446;2024-03-23T03:30:22;29.17;;;9.48;;
23782;SDS011;12071;50.850;4.446;2024-03-23T03:32:47;23.10;;;8.93;;
23782;SDS011;12071;50.850;4.446;2024-03-23T03:35:14;27.27;;;8.52;;
23782;SDS011;12071;50.850;4.446;2024-03-23T03:37:40;23.65;;;8.98;;
23782;SDS011;12071;50.850;4.446;2024-03-23T03:40:06;22.08;;;8.80;;
23782;SDS011;12071;50.850;4.446;2024-03-23T03:42:34;28.08;;;9.15;;
23782;SDS011;12071;50.850;4.446;2024-03-23T03:45:00;26.15;;;8.88;;
23782;SDS011;12071;50.850;4.446;2024-03-23T03:47:26;21.88;;;9.23;;
23782;SDS011;12071;50.850;4.446;2024-03-23T03:49:51;27.08;;;9.57;;
23782;SDS011;12071;50.850;4.446;2024-03-23T03:52:17;22.15;;;9.05;;
23782;SDS011;12071;50.850;4.446;2024-03-23T03:54:42;32.83;;;10.35;;
23782;SDS011;12071;50.850;4.446;2024-03-23T03:57:08;24.85;;;9.55;;
23782;SDS011;12071;50.850;4.446;2024-03-23T03:59:34;28.23;;;10.35;;
23782;SDS011;12071;50.850;4.446;2024-03-23T04:01:59;22.90;;;9.07;;
23782;SDS011;12071;50.850;4.446;2024-03-23T04:04:25;28.30;;;10.57;;
23782;SDS011;12071;50.850;4.446;2024-03-23T04:06:57;23.88;;;9.68;;
23782;SDS011;12071;50.850;4.446;2024-03-23T04:09:24;20.80;;;10.23;;
23782;SDS011;12071;50.850;4.446;2024-03-23T04:11:50;21.80;;;10.02;;
23782;SDS011;12071;50.850;4.446;2024-03-23T04:14:16;28.55;;;10.48;;
23782;SDS011;12071;50.850;4.446;2024-03-23T04:16:41;21.10;;;10.80;;
23782;SDS011;12071;50.850;4.446;2024-03-23T04:19:07;26.55;;;10.82;;
23782;SDS011;12071;50.850;4.446;2024-03-23T04:21:33;24.55;;;9.85;;
23782;SDS011;12071;50.850;4.446;2024-03-23T04:23:59;18.92;;;8.55;;
23782;SDS011;12071;50.850;4.446;2024-03-23T04:26:25;27.00;;;10.60;;
23782;SDS011;12071;50.850;4.446;2024-03-23T04:28:51;22.73;;;9.25;;
23782;SDS011;12071;50.850;4.446;2024-03-23T04:31:16;25.77;;;9.60;;
23782;SDS011;12071;50.850;4.446;2024-03-23T04:33:42;19.77;;;9.07;;
23782;SDS011;12071;50.850;4.446;2024-03-23T04:36:08;23.17;;;9.52;;
23782;SDS011;12071;50.850;4.446;2024-03-23T04:38:35;18.17;;;8.35;;
23782;SDS011;12071;50.850;4.446;2024-03-23T04:41:01;31.00;;;8.88;;
23782;SDS011;12071;50.850;4.446;2024-03-23T04:43:27;19.95;;;8.20;;
23782;SDS011;12071;50.850;4.446;2024-03-23T04:45:53;21.85;;;8.05;;
23782;SDS011;12071;50.850;4.446;2024-03-23T04:48:20;20.75;;;7.57;;
23782;SDS011;12071;50.850;4.446;2024-03-23T04:50:54;17.00;;;6.90;;
23782;SDS011;12071;50.850;4.446;2024-03-23T04:53:20;13.65;;;6.00;;
23782;SDS011;12071;50.850;4.446;2024-03-23T04:55:46;15.50;;;6.47;;
23782;SDS011;12071;50.850;4.446;2024-03-23T04:58:12;28.05;;;6.40;;
23782;SDS011;12071;50.850;4.446;2024-03-23T05:00:38;16.23;;;5.93;;
23782;SDS011;12071;50.850;4.446;2024-03-23T05:03:03;20.52;;;6.63;;
23782;SDS011;12071;50.850;4.446;2024-03-23T05:05:29;17.98;;;7.28;;
23782;SDS011;12071;50.850;4.446;2024-03-23T05:07:55;19.77;;;6.68;;
23782;SDS011;12071;50.850;4.446;2024-03-23T05:10:21;18.88;;;6.38;;
23782;SDS011;12071;50.850;4.446;2024-03-23T05:12:46;19.85;;;7.03;;
23782;SDS011;12071;50.850;4.446;2024-03-23T05:15:12;15.52;;;6.43;;
23782;SDS011;12071;50.850;4.446;2024-03-23T05:17:37;17.42;;;6.93;;
23782;SDS011;12071;50.850;4.446;2024-03-23T05:20:04;20.67;;;6.72;;
23782;SDS011;12071;50.850;4.446;2024-03-23T05:22:34;19.08;;;6.82;;
23782;SDS011;12071;50.850;4.446;2024-03-23T05:25:01;16.83;;;6.45;;
23782;SDS011;12071;50.850;4.446;2024-03-23T05:27:29;19.17;;;7.03;;
23782;SDS011;12071;50.850;4.446;2024-03-23T05:29:58;19.27;;;6.90;;
23782;SDS011;12071;50.850;4.446;2024-03-23T05:32:24;17.65;;;7.13;;
23782;SDS011;12071;50.850;4.446;2024-03-23T05:34:49;18.23;;;7.07;;
23782;SDS011;12071;50.850;4.446;2024-03-23T05:37:20;20.33;;;7.80;;
23782;SDS011;12071;50.850;4.446;2024-03-23T05:39:47;19.15;;;6.68;;
23782;SDS011;12071;50.850;4.446;2024-03-23T05:42:15;18.15;;;6.55;;
23782;SDS011;12071;50.850;4.446;2024-03-23T05:44:42;19.88;;;5.95;;
23782;SDS011;12071;50.850;4.446;2024-03-23T05:47:11;18.15;;;6.07;;
23782;SDS011;12071;50.850;4.446;2024-03-23T05:49:41;17.92;;;6.60;;
23782;SDS011;12071;50.850;4.446;2024-03-23T05:52:08;18.17;;;6.07;;
23782;SDS011;12071;50.850;4.446;2024-03-23T05:54:34;20.65;;;5.90;;
23782;SDS011;12071;50.850;4.446;2024-03-23T05:57:01;18.65;;;5.65;;
23782;SDS011;12071;50.850;4.446;2024-03-23T05:59:27;15.00;;;4.50;;
23782;SDS011;12071;50.850;4.446;2024-03-23T06:01:53;17.02;;;4.57;;
23782;SDS011;12071;50.850;4.446;2024-03-23T06:04:18;16.33;;;4.15;;
23782;SDS011;12071;50.850;4.446;2024-03-23T06:06:44;17.63;;;4.60;;
23782;SDS011;12071;50.850;4.446;2024-03-23T06:09:10;18.67;;;4.88;;
23782;SDS011;12071;50.850;4.446;2024-03-23T06:11:36;18.35;;;4.90;;
23782;SDS011;12071;50.850;4.446;2024-03-23T06:14:02;15.63;;;4.35;;
23782;SDS011;12071;50.850;4.446;2024-03-23T06:16:27;15.15;;;3.85;;
23782;SDS011;12071;50.850;4.446;2024-03-23T06:18:53;14.35;;;3.60;;
23782;SDS011;12071;50.850;4.446;2024-03-23T06:21:20;11.02;;;3.58;;
23782;SDS011;12071;50.850;4.446;2024-03-23T06:23:46;12.82;;;3.50;;
23782;SDS011;12071;50.850;4.446;2024-03-23T06:26:18;14.98;;;3.13;;
23782;SDS011;12071;50.850;4.446;2024-03-23T06:28:44;12.40;;;2.83;;
23782;SDS011;12071;50.850;4.446;2024-03-23T06:31:11;16.85;;;2.92;;
23782;SDS011;12071;50.850;4.446;2024-03-23T06:33:37;22.52;;;4.07;;
23782;SDS011;12071;50.850;4.446;2024-03-23T06:36:03;13.05;;;3.00;;
23782;SDS011;12071;50.850;4.446;2024-03-23T06:38:30;13.55;;;2.70;;
23782;SDS011;12071;50.850;4.446;2024-03-23T06:40:56;10.55;;;3.08;;
23782;SDS011;12071;50.850;4.446;2024-03-23T06:43:23;12.90;;;2.63;;
23782;SDS011;12071;50.850;4.446;2024-03-23T06:45:54;16.95;;;2.80;;
23782;SDS011;12071;50.850;4.446;2024-03-23T06:48:20;16.08;;;2.80;;
23782;SDS011;12071;50.850;4.446;2024-03-23T06:50:46;17.67;;;4.00;;
23782;SDS011;12071;50.850;4.446;2024-03-23T06:53:13;13.35;;;2.78;;
23782;SDS011;12071;50.850;4.446;2024-03-23T06:55:39;12.77;;;2.40;;
23782;SDS011;12071;50.850;4.446;2024-03-23T06:58:04;14.75;;;3.22;;
23782;SDS011;12071;50.850;4.446;2024-03-23T07:00:30;12.82;;;3.60;;
23782;SDS011;12071;50.850;4.446;2024-03-23T07:02:57;13.68;;;2.85;;
23782;SDS011;12071;50.850;4.446;2024-03-23T07:05:23;11.05;;;2.90;;
23782;SDS011;12071;50.850;4.446;2024-03-23T07:07:49;10.93;;;2.75;;
23782;SDS011;12071;50.850;4.446;2024-03-23T07:10:15;16.35;;;3.28;;
23782;SDS011;12071;50.850;4.446;2024-03-23T07:12:40;15.10;;;3.13;;
23782;SDS011;12071;50.850;4.446;2024-03-23T07:15:06;15.13;;;3.58;;
23782;SDS011;12071;50.850;4.446;2024-03-23T07:17:33;12.98;;;2.50;;
23782;SDS011;12071;50.850;4.446;2024-03-23T07:20:00;10.40;;;2.38;;
23782;SDS011;12071;50.850;4.446;2024-03-23T07:22:29;8.00;;;2.17;;
23782;SDS011;12071;50.850;4.446;2024-03-23T07:25:00;6.65;;;2.28;;
23782;SDS011;12071;50.850;4.446;2024-03-23T07:27:26;7.15;;;1.98;;
23782;SDS011;12071;50.850;4.446;2024-03-23T07:29:52;9.82;;;2.60;;
23782;SDS011;12071;50.850;4.446;2024-03-23T07:32:18;16.02;;;3.20;;
23782;SDS011;12071;50.850;4.446;2024-03-23T07:34:43;8.50;;;2.70;;
23782;SDS011;12071;50.850;4.446;2024-03-23T07:37:12;10.35;;;2.80;;
23782;SDS011;12071;50.850;4.446;2024-03-23T07:39:39;12.95;;;3.42;;
23782;SDS011;12071;50.850;4.446;2024-03-23T07:42:04;12.85;;;3.70;;
23782;SDS011;12071;50.850;4.446;2024-03-23T07:44:30;13.45;;;4.00;;
23782;SDS011;12071;50.850;4.446;2024-03-23T07:46:56;17.90;;;4.25;;
23782;SDS011;12071;50.850;4.446;2024-03-23T07:49:22;20.00;;;4.55;;
23782;SDS011;12071;50.850;4.446;2024-03-23T07:51:47;18.88;;;3.67;;
23782;SDS011;12071;50.850;4.446;2024-03-23T07:54:13;15.15;;;3.58;;
23782;SDS011;12071;50.850;4.446;2024-03-23T07:56:39;12.80;;;3.80;;
23782;SDS011;12071;50.850;4.446;2024-03-23T07:59:04;16.00;;;3.58;;
23782;SDS011;12071;50.850;4.446;2024-03-23T08:01:30;15.07;;;3.83;;
23782;SDS011;12071;50.850;4.446;2024-03-23T08:03:56;18.05;;;3.70;;
23782;SDS011;12071;50.850;4.446;2024-03-23T08:06:21;15.95;;;3.40;;
23782;SDS011;12071;50.850;4.446;2024-03-23T08:08:54;10.25;;;2.60;;
23782;SDS011;12071;50.850;4.446;2024-03-23T08:11:27;15.23;;;3.40;;
23782;SDS011;12071;50.850;4.446;2024-03-23T08:13:54;11.55;;;2.97;;
23782;SDS011;12071;50.850;4.446;2024-03-23T08:16:20;12.25;;;3.20;;
23782;SDS011;12071;50.850;4.446;2024-03-23T08:18:46;13.60;;;2.92;;
23782;SDS011;12071;50.850;4.446;2024-03-23T08:21:12;13.20;;;3.35;;
23782;SDS011;12071;50.850;4.446;2024-03-23T08:23:38;15.57;;;3.22;;
23782;SDS011;12071;50.850;4.446;2024-03-23T08:28:31;15.75;;;3.10;;
23782;SDS011;12071;50.850;4.446;2024-03-23T08:31:00;15.63;;;3.20;;
23782;SDS011;12071;50.850;4.446;2024-03-23T08:33:30;15.07;;;3.08;;
23782;SDS011;12071;50.850;4.446;2024-03-23T08:35:57;15.63;;;3.75;;
23782;SDS011;12071;50.850;4.446;2024-03-23T08:38:24;16.15;;;3.13;;
23782;SDS011;12071;50.850;4.446;2024-03-23T08:41:09;12.63;;;3.08;;
23782;SDS011;12071;50.850;4.446;2024-03-23T08:43:37;18.90;;;3.20;;
23782;SDS011;12071;50.850;4.446;2024-03-23T08:46:07;11.73;;;2.97;;
23782;SDS011;12071;50.850;4.446;2024-03-23T08:51:06;14.65;;;2.90;;
23782;SDS011;12071;50.850;4.446;2024-03-23T08:53:34;18.00;;;3.17;;
23782;SDS011;12071;50.850;4.446;2024-03-23T08:56:00;12.77;;;2.78;;
23782;SDS011;12071;50.850;4.446;2024-03-23T08:58:28;11.25;;;2.47;;
23782;SDS011;12071;50.850;4.446;2024-03-23T09:00:56;13.60;;;3.03;;
23782;SDS011;12071;50.850;4.446;2024-03-23T09:03:28;13.70;;;2.85;;
23782;SDS011;12071;50.850;4.446;2024-03-23T09:05:54;12.60;;;2.53;;
23782;SDS011;12071;50.850;4.446;2024-03-23T09:08:20;8.77;;;2.45;;
23782;SDS011;12071;50.850;4.446;2024-03-23T09:10:46;10.18;;;2.30;;
23782;SDS011;12071;50.850;4.446;2024-03-23T09:13:13;11.85;;;2.20;;
23782;SDS011;12071;50.850;4.446;2024-03-23T09:15:45;9.45;;;2.03;;
23782;SDS011;12071;50.850;4.446;2024-03-23T09:18:12;13.98;;;2.30;;
23782;SDS011;12071;50.850;4.446;2024-03-23T09:20:38;11.55;;;2.88;;
23782;SDS011;12071;50.850;4.446;2024-03-23T09:23:04;10.23;;;2.20;;
23782;SDS011;12071;50.850;4.446;2024-03-23T09:25:30;9.35;;;2.22;;
23782;SDS011;12071;50.850;4.446;2024-03-23T09:27:55;8.95;;;1.92;;
23782;SDS011;12071;50.850;4.446;2024-03-23T09:30:21;10.25;;;2.33;;
23782;SDS011;12071;50.850;4.446;2024-03-23T09:32:48;11.57;;;2.67;;
23782;SDS011;12071;50.850;4.446;2024-03-23T09:35:14;13.43;;;2.45;;
23782;SDS011;12071;50.850;4.446;2024-03-23T09:37:39;7.13;;;2.25;;
23782;SDS011;12071;50.850;4.446;2024-03-23T09:40:06;11.98;;;2.50;;
23782;SDS011;12071;50.850;4.446;2024-03-23T09:42:36;6.55;;;2.40;;
23782;SDS011;12071;50.850;4.446;2024-03-23T09:45:02;10.95;;;2.97;;
23782;SDS011;12071;50.850;4.446;2024-03-23T09:47:32;9.38;;;2.20;;
23782;SDS011;12071;50.850;4.446;2024-03-23T09:49:59;8.45;;;2.88;;
23782;SDS011;12071;50.850;4.446;2024-03-23T09:52:25;5.50;;;2.08;;
23782;SDS011;12071;50.850;4.446;2024-03-23T09:54:51;6.88;;;1.90;;
23782;SDS011;12071;50.850;4.446;2024-03-23T09:57:16;8.10;;;2.63;;
23782;SDS011;12071;50.850;4.446;2024-03-23T09:59:42;6.60;;;2.00;;
23782;SDS011;12071;50.850;4.446;2024-03-23T10:02:08;9.88;;;2.38;;
23782;SDS011;12071;50.850;4.446;2024-03-23T10:04:40;7.28;;;3.13;;
23782;SDS011;12071;50.850;4.446;2024-03-23T10:09:45;7.63;;;2.15;;
23782;SDS011;12071;50.850;4.446;2024-03-23T10:12:12;7.15;;;2.03;;
23782;SDS011;12071;50.850;4.446;2024-03-23T10:14:42;10.43;;;2.70;;
23782;SDS011;12071;50.850;4.446;2024-03-23T10:19:46;8.85;;;2.45;;
23782;SDS011;12071;50.850;4.446;2024-03-23T10:24:42;9.52;;;2.55;;
23782;SDS011;12071;50.850;4.446;2024-03-23T10:27:08;5.97;;;1.83;;
23782;SDS011;12071;50.850;4.446;2024-03-23T10:29:34;7.22;;;2.20;;
23782;SDS011;12071;50.850;4.446;2024-03-23T10:32:09;8.07;;;2.15;;
23782;SDS011;12071;50.850;4.446;2024-03-23T10:34:36;8.15;;;1.63;;
23782;SDS011;12071;50.850;4.446;2024-03-23T10:37:02;9.30;;;2.28;;
23782;SDS011;12071;50.850;4.446;2024-03-23T10:39:39;8.15;;;2.10;;
23782;SDS011;12071;50.850;4.446;2024-03-23T10:42:06;8.98;;;2.00;;
23782;SDS011;12071;50.850;4.446;2024-03-23T10:44:33;10.07;;;2.05;;
23782;SDS011;12071;50.850;4.446;2024-03-23T10:47:03;6.72;;;1.92;;
23782;SDS011;12071;50.850;4.446;2024-03-23T10:49:30;8.93;;;1.90;;
23782;SDS011;12071;50.850;4.446;2024-03-23T10:51:57;12.40;;;1.60;;
23782;SDS011;12071;50.850;4.446;2024-03-23T10:54:33;10.25;;;1.75;;
23782;SDS011;12071;50.850;4.446;2024-03-23T10:57:04;8.40;;;1.92;;
23782;SDS011;12071;50.850;4.446;2024-03-23T10:59:33;5.35;;;1.33;;
23782;SDS011;12071;50.850;4.446;2024-03-23T11:02:21;7.60;;;1.08;;
23782;SDS011;12071;50.850;4.446;2024-03-23T11:04:47;9.88;;;1.77;;
23782;SDS011;12071;50.850;4.446;2024-03-23T11:09:51;8.48;;;1.55;;
23782;SDS011;12071;50.850;4.446;2024-03-23T11:14:50;5.25;;;1.17;;
23782;SDS011;12071;50.850;4.446;2024-03-23T11:17:20;7.63;;;1.50;;
23782;SDS011;12071;50.850;4.446;2024-03-23T11:20:08;5.85;;;1.25;;
23782;SDS011;12071;50.850;4.446;2024-03-23T11:22:39;5.53;;;1.17;;
23782;SDS011;12071;50.850;4.446;2024-03-23T11:25:16;6.10;;;1.10;;
23782;SDS011;12071;50.850;4.446;2024-03-23T11:27:50;7.30;;;1.13;;
23782;SDS011;12071;50.850;4.446;2024-03-23T11:30:21;6.07;;;1.00;;
23782;SDS011;12071;50.850;4.446;2024-03-23T11:32:49;4.47;;;1.13;;
23782;SDS011;12071;50.850;4.446;2024-03-23T11:40:38;5.75;;;1.17;;
23782;SDS011;12071;50.850;4.446;2024-03-23T11:43:06;5.78;;;1.13;;
23782;SDS011;12071;50.850;4.446;2024-03-23T11:45:37;6.43;;;1.45;;
23782;SDS011;12071;50.850;4.446;2024-03-23T11:50:41;4.60;;;0.85;;
23782;SDS011;12071;50.850;4.446;2024-03-23T11:53:09;6.70;;;1.10;;
23782;SDS011;12071;50.850;4.446;2024-03-23T11:55:53;2.78;;;1.00;;
23782;SDS011;12071;50.850;4.446;2024-03-23T11:58:23;5.95;;;0.98;;
23782;SDS011;12071;50.850;4.446;2024-03-23T12:00:51;7.78;;;1.33;;
23782;SDS011;12071;50.850;4.446;2024-03-23T12:03:17;8.90;;;1.35;;
23782;SDS011;12071;50.850;4.446;2024-03-23T12:05:50;6.65;;;1.13;;
23782;SDS011;12071;50.850;4.446;2024-03-23T12:11:06;4.25;;;0.93;;
23782;SDS011;12071;50.850;4.446;2024-03-23T12:13:45;6.20;;;1.20;;
23782;SDS011;12071;50.850;4.446;2024-03-23T12:16:19;3.92;;;0.90;;
23782;SDS011;12071;50.850;4.446;2024-03-23T12:18:46;7.45;;;1.25;;
23782;SDS011;12071;50.850;4.446;2024-03-23T12:21:14;5.53;;;1.23;;
23782;SDS011;12071;50.850;4.446;2024-03-23T12:23:40;4.28;;;1.00;;
23782;SDS011;12071;50.850;4.446;2024-03-23T12:26:07;4.60;;;0.80;;
23782;SDS011;12071;50.850;4.446;2024-03-23T12:28:33;4.20;;;0.80;;
23782;SDS011;12071;50.850;4.446;2024-03-23T12:30:58;3.28;;;0.73;;
23782;SDS011;12071;50.850;4.446;2024-03-23T12:33:24;4.68;;;0.90;;
23782;SDS011;12071;50.850;4.446;2024-03-23T12:35:50;6.63;;;1.02;;
23782;SDS011;12071;50.850;4.446;2024-03-23T12:38:16;6.38;;;1.00;;
23782;SDS011;12071;50.850;4.446;2024-03-23T12:40:51;7.05;;;1.10;;
23782;SDS011;12071;50.850;4.446;2024-03-23T12:43:17;5.72;;;1.33;;
23782;SDS011;12071;50.850;4.446;2024-03-23T12:45:46;5.88;;;0.90;;
23782;SDS011;12071;50.850;4.446;2024-03-23T12:48:13;6.35;;;1.08;;
23782;SDS011;12071;50.850;4.446;2024-03-23T12:50:40;8.18;;;1.52;;
23782;SDS011;12071;50.850;4.446;2024-03-23T12:53:06;5.65;;;1.42;;
23782;SDS011;12071;50.850;4.446;2024-03-23T12:55:31;10.65;;;1.45;;
23782;SDS011;12071;50.850;4.446;2024-03-23T12:57:59;5.35;;;1.48;;
23782;SDS011;12071;50.850;4.446;2024-03-23T13:00:25;7.03;;;1.30;;
23782;SDS011;12071;50.850;4.446;2024-03-23T13:02:51;6.63;;;1.27;;
23782;SDS011;12071;50.850;4.446;2024-03-23T13:05:16;5.65;;;1.20;;
23782;SDS011;12071;50.850;4.446;2024-03-23T13:07:42;5.68;;;0.85;;
23782;SDS011;12071;50.850;4.446;2024-03-23T13:10:08;3.35;;;0.85;;
23782;SDS011;12071;50.850;4.446;2024-03-23T13:12:34;3.63;;;0.50;;
23782;SDS011;12071;50.850;4.446;2024-03-23T13:14:59;3.72;;;0.88;;
23782;SDS011;12071;50.850;4.446;2024-03-23T13:17:27;2.13;;;0.73;;
23782;SDS011;12071;50.850;4.446;2024-03-23T13:19:53;3.30;;;0.90;;
23782;SDS011;12071;50.850;4.446;2024-03-23T13:22:20;4.30;;;0.93;;
23782;SDS011;12071;50.850;4.446;2024-03-23T13:24:46;3.83;;;0.80;;
23782;SDS011;12071;50.850;4.446;2024-03-23T13:27:12;4.43;;;0.90;;
23782;SDS011;12071;50.850;4.446;2024-03-23T13:29:37;7.00;;;1.00;;
23782;SDS011;12071;50.850;4.446;2024-03-23T13:32:05;7.85;;;0.93;;
23782;SDS011;12071;50.850;4.446;2024-03-23T13:34:31;3.58;;;0.60;;
23782;SDS011;12071;50.850;4.446;2024-03-23T13:36:58;2.90;;;0.90;;
23782;SDS011;12071;50.850;4.446;2024-03-23T13:39:24;3.42;;;0.70;;
23782;SDS011;12071;50.850;4.446;2024-03-23T13:41:52;2.92;;;0.70;;
23782;SDS011;12071;50.850;4.446;2024-03-23T13:44:18;3.33;;;0.90;;
23782;SDS011;12071;50.850;4.446;2024-03-23T13:46:43;2.38;;;0.60;;
23782;SDS011;12071;50.850;4.446;2024-03-23T13:52:05;4.07;;;0.80;;
23782;SDS011;12071;50.850;4.446;2024-03-23T13:54:32;8.55;;;1.40;;
23782;SDS011;12071;50.850;4.446;2024-03-23T13:56:57;4.93;;;0.80;;
23782;SDS011;12071;50.850;4.446;2024-03-23T13:59:23;7.05;;;0.88;;
23782;SDS011;12071;50.850;4.446;2024-03-23T14:01:49;4.65;;;1.20;;
23782;SDS011;12071;50.850;4.446;2024-03-23T14:04:16;4.25;;;1.00;;
23782;SDS011;12071;50.850;4.446;2024-03-23T14:06:42;4.10;;;1.00;;
23782;SDS011;12071;50.850;4.446;2024-03-23T14:09:10;4.40;;;0.85;;
23782;SDS011;12071;50.850;4.446;2024-03-23T14:11:41;3.65;;;1.23;;
23782;SDS011;12071;50.850;4.446;2024-03-23T14:14:08;2.75;;;1.00;;
23782;SDS011;12071;50.850;4.446;2024-03-23T14:16:34;3.88;;;1.40;;
23782;SDS011;12071;50.850;4.446;2024-03-23T14:19:00;5.15;;;1.20;;
23782;SDS011;12071;50.850;4.446;2024-03-23T14:21:27;6.28;;;1.20;;
23782;SDS011;12071;50.850;4.446;2024-03-23T14:23:52;5.18;;;1.08;;
23782;SDS011;12071;50.850;4.446;2024-03-23T14:26:20;5.32;;;0.90;;
23782;SDS011;12071;50.850;4.446;2024-03-23T14:28:46;4.85;;;0.85;;
23782;SDS011;12071;50.850;4.446;2024-03-23T14:31:11;3.47;;;0.73;;
23782;SDS011;12071;50.850;4.446;2024-03-23T14:33:37;4.63;;;1.08;;
23782;SDS011;12071;50.850;4.446;2024-03-23T14:36:06;5.05;;;1.10;;
23782;SDS011;12071;50.850;4.446;2024-03-23T14:38:32;6.30;;;1.25;;
23782;SDS011;12071;50.850;4.446;2024-03-23T14:40:59;5.43;;;1.20;;
23782;SDS011;12071;50.850;4.446;2024-03-23T14:43:25;3.47;;;0.90;;
23782;SDS011;12071;50.850;4.446;2024-03-23T14:48:38;5.93;;;1.20;;
23782;SDS011;12071;50.850;4.446;2024-03-23T14:51:05;4.50;;;1.05;;
23782;SDS011;12071;50.850;4.446;2024-03-23T14:53:32;4.43;;;0.77;;
23782;SDS011;12071;50.850;4.446;2024-03-23T14:56:02;3.95;;;1.00;;
23782;SDS011;12071;50.850;4.446;2024-03-23T14:58:29;7.22;;;0.95;;
23782;SDS011;12071;50.850;4.446;2024-03-23T15:01:05;6.88;;;1.30;;
23782;SDS011;12071;50.850;4.446;2024-03-23T15:03:34;4.07;;;1.33;;
23782;SDS011;12071;50.850;4.446;2024-03-23T15:06:00;5.65;;;1.20;;
23782;SDS011;12071;50.850;4.446;2024-03-23T15:08:27;4.50;;;1.20;;
23782;SDS011;12071;50.850;4.446;2024-03-23T15:10:53;4.07;;;1.05;;
23782;SDS011;12071;50.850;4.446;2024-03-23T15:13:19;3.88;;;1.25;;
23782;SDS011;12071;50.850;4.446;2024-03-23T15:15:48;6.18;;;1.40;;
23782;SDS011;12071;50.850;4.446;2024-03-23T15:18:15;4.43;;;0.90;;
23782;SDS011;12071;50.850;4.446;2024-03-23T15:20:41;4.20;;;1.00;;
23782;SDS011;12071;50.850;4.446;2024-03-23T15:23:16;4.97;;;1.40;;
23782;SDS011;12071;50.850;4.446;2024-03-23T15:25:42;6.47;;;1.30;;
23782;SDS011;12071;50.850;4.446;2024-03-23T15:28:07;5.45;;;1.67;;
23782;SDS011;12071;50.850;4.446;2024-03-23T15:30:33;4.32;;;1.30;;
23782;SDS011;12071;50.850;4.446;2024-03-23T15:32:59;5.93;;;1.20;;
23782;SDS011;12071;50.850;4.446;2024-03-23T15:35:24;7.10;;;1.33;;
23782;SDS011;12071;50.850;4.446;2024-03-23T15:37:50;4.97;;;1.13;;
23782;SDS011;12071;50.850;4.446;2024-03-23T15:40:16;5.93;;;1.17;;
23782;SDS011;12071;50.850;4.446;2024-03-23T15:42:42;7.15;;;1.38;;
23782;SDS011;12071;50.850;4.446;2024-03-23T15:45:08;5.75;;;1.40;;
23782;SDS011;12071;50.850;4.446;2024-03-23T15:47:34;7.75;;;1.10;;
23782;SDS011;12071;50.850;4.446;2024-03-23T15:50:00;4.40;;;1.48;;
23782;SDS011;12071;50.850;4.446;2024-03-23T15:52:28;5.53;;;1.10;;
23782;SDS011;12071;50.850;4.446;2024-03-23T15:54:54;8.27;;;1.50;;
23782;SDS011;12071;50.850;4.446;2024-03-23T15:57:21;3.28;;;0.90;;
23782;SDS011;12071;50.850;4.446;2024-03-23T15:59:47;4.18;;;1.10;;
23782;SDS011;12071;50.850;4.446;2024-03-23T16:02:12;7.57;;;1.40;;
23782;SDS011;12071;50.850;4.446;2024-03-23T16:04:38;7.72;;;1.60;;